createdAt,value
2022-08-23T00:02:25.755Z,2.15
2022-08-23T00:05:08.184Z,2.13
2022-08-23T00:07:42.691Z,1.95
2022-08-23T00:10:13.855Z,2.10
2022-08-23T00:12:42.179Z,3.00
2022-08-23T00:15:12.349Z,2.58
2022-08-23T00:17:39.687Z,2.55
2022-08-23T00:20:10.649Z,3.53
2022-08-23T00:22:40.164Z,1.83
2022-08-23T00:25:11.131Z,3.03
2022-08-23T00:27:38.623Z,2.53
2022-08-23T00:30:09.981Z,2.22
2022-08-23T00:32:38.649Z,2.13
2022-08-23T00:35:07.938Z,2.10
2022-08-23T00:37:35.488Z,2.10
2022-08-23T00:40:04.134Z,3.35
2022-08-23T00:42:58.532Z,1.60
2022-08-23T00:45:56.546Z,2.20
2022-08-23T00:48:24.251Z,2.13
2022-08-23T00:51:16.680Z,2.60
2022-08-23T00:53:53.688Z,1.50
2022-08-23T00:56:23.819Z,1.83
2022-08-23T00:58:51.324Z,1.77
2022-08-23T01:01:19.070Z,2.50
2022-08-23T01:04:03.022Z,3.65
2022-08-23T01:07:19.960Z,2.53
2022-08-23T01:09:50.187Z,2.13
2022-08-23T01:12:32.321Z,1.80
2022-08-23T01:15:10.987Z,1.75
2022-08-23T01:17:49.893Z,1.95
2022-08-23T01:20:21.437Z,3.28
2022-08-23T01:23:19.885Z,2.30
2022-08-23T01:25:47.478Z,5.72
2022-08-23T01:28:14.782Z,2.80
2022-08-23T01:30:44.563Z,1.50
2022-08-23T01:33:11.948Z,2.63
2022-08-23T01:35:48.127Z,2.33
2022-08-23T01:38:16.416Z,2.38
2022-08-23T01:40:45.003Z,1.40
2022-08-23T01:43:13.656Z,2.42
2022-08-23T01:45:42.319Z,1.60
2022-08-23T01:48:09.675Z,1.60
2022-08-23T01:53:05.814Z,2.70
2022-08-23T01:55:33.688Z,1.90
2022-08-23T01:58:03.180Z,2.00
2022-08-23T02:00:36.605Z,1.95
2022-08-23T02:03:05.206Z,1.87
2022-08-23T02:05:32.829Z,1.45
2022-08-23T02:08:20.620Z,1.98
2022-08-23T02:10:47.930Z,1.67
2022-08-23T02:13:15.870Z,1.73
2022-08-23T02:15:45.606Z,1.98
2022-08-23T02:18:13.939Z,2.28
2022-08-23T02:20:49.333Z,2.40
2022-08-23T02:23:17.692Z,1.85
2022-08-23T02:25:44.997Z,1.83
2022-08-23T02:28:12.506Z,1.73
2022-08-23T02:30:40.152Z,2.00
2022-08-23T02:33:07.637Z,1.83
2022-08-23T02:35:35.189Z,2.58
2022-08-23T02:38:07.421Z,2.50
2022-08-23T02:40:35.643Z,2.42
2022-08-23T02:43:04.177Z,2.17
2022-08-23T02:45:31.482Z,2.38
2022-08-23T02:48:00.033Z,2.15
2022-08-23T02:50:27.985Z,1.80
2022-08-23T02:52:55.690Z,2.88
2022-08-23T02:55:23.027Z,3.17
2022-08-23T02:57:50.377Z,1.90
2022-08-23T03:00:19.149Z,3.60
2022-08-23T03:02:46.738Z,2.05
2022-08-23T03:05:15.793Z,2.67
2022-08-23T03:07:43.615Z,2.13
2022-08-23T03:10:12.165Z,1.80
2022-08-23T03:12:39.507Z,3.97
2022-08-23T03:15:07.849Z,2.35
2022-08-23T03:17:35.695Z,1.52
2022-08-23T03:20:03.423Z,2.08
2022-08-23T03:22:30.677Z,1.65
2022-08-23T03:24:58.167Z,2.13
2022-08-23T03:27:25.518Z,2.33
2022-08-23T03:29:52.860Z,1.55
2022-08-23T03:32:20.214Z,1.73
2022-08-23T03:34:47.540Z,2.05
2022-08-23T03:37:15.024Z,2.05
2022-08-23T03:39:42.295Z,3.38
2022-08-23T03:42:09.660Z,2.35
2022-08-23T03:44:36.939Z,2.65
2022-08-23T03:47:06.040Z,1.75
2022-08-23T03:49:34.126Z,1.73
2022-08-23T03:52:01.747Z,2.30
2022-08-23T03:54:30.069Z,2.28
2022-08-23T03:57:00.424Z,2.33
2022-08-23T03:59:30.117Z,2.22
2022-08-23T04:01:57.458Z,3.15
2022-08-23T04:04:24.850Z,2.15
2022-08-23T04:06:52.162Z,1.77
2022-08-23T04:09:19.451Z,3.47
2022-08-23T04:11:46.782Z,1.80
2022-08-23T04:14:14.728Z,2.63
2022-08-23T04:16:43.116Z,2.40
2022-08-23T04:19:15.846Z,2.47
2022-08-23T04:21:48.248Z,1.88
2022-08-23T04:24:17.116Z,1.65
2022-08-23T04:26:44.590Z,2.05
2022-08-23T04:29:20.769Z,3.80
2022-08-23T04:32:02.809Z,3.47
2022-08-23T04:34:34.275Z,3.30
2022-08-23T04:37:02.336Z,2.10
2022-08-23T04:39:29.644Z,1.92
2022-08-23T04:42:15.389Z,2.03
2022-08-23T04:44:42.716Z,2.92
2022-08-23T04:47:10.016Z,2.42
2022-08-23T04:49:37.319Z,2.53
2022-08-23T04:52:04.686Z,2.63
2022-08-23T04:54:32.081Z,2.67
2022-08-23T04:56:59.347Z,2.88
2022-08-23T04:59:26.673Z,3.17
2022-08-23T05:01:53.951Z,2.10
2022-08-23T05:04:21.651Z,2.78
2022-08-23T05:06:48.933Z,2.80
2022-08-23T05:09:20.496Z,3.30
2022-08-23T05:11:49.334Z,2.50
2022-08-23T05:14:16.619Z,2.75
2022-08-23T05:16:43.872Z,2.25
2022-08-23T05:19:11.104Z,2.25
2022-08-23T05:21:38.436Z,3.08
2022-08-23T05:24:06.025Z,2.10
2022-08-23T05:26:34.131Z,2.42
2022-08-23T05:29:01.392Z,2.92
2022-08-23T05:31:30.445Z,2.65
2022-08-23T05:33:58.103Z,3.20
2022-08-23T05:36:25.812Z,3.13
2022-08-23T05:38:53.479Z,2.33
2022-08-23T05:41:21.222Z,3.20
2022-08-23T05:43:48.933Z,4.05
2022-08-23T05:46:20.048Z,8.15
2022-08-23T05:48:50.975Z,5.10
2022-08-23T05:51:22.773Z,5.55
2022-08-23T05:53:52.177Z,10.07
2022-08-23T05:56:26.973Z,6.68
2022-08-23T05:59:00.046Z,8.45
2022-08-23T06:01:29.584Z,7.18
2022-08-23T06:04:00.427Z,9.30
2022-08-23T06:06:36.942Z,10.73
2022-08-23T06:09:07.193Z,11.25
2022-08-23T06:11:34.986Z,16.85
2022-08-23T06:14:05.358Z,14.95
2022-08-23T06:16:36.034Z,9.88
2022-08-23T06:19:04.742Z,27.85
2022-08-23T06:21:33.741Z,19.30
2022-08-23T06:24:01.711Z,17.83
2022-08-23T06:26:32.498Z,16.83
2022-08-23T06:29:03.031Z,17.58
2022-08-23T06:31:47.260Z,18.10
2022-08-23T06:34:21.676Z,17.77
2022-08-23T06:36:52.423Z,12.27
2022-08-23T06:39:23.410Z,13.35
2022-08-23T06:41:51.113Z,10.60
2022-08-23T06:44:19.827Z,11.40
2022-08-23T06:46:48.768Z,10.52
2022-08-23T06:49:16.843Z,9.88
2022-08-23T06:51:48.758Z,9.45
2022-08-23T06:54:17.822Z,10.15
2022-08-23T06:56:46.113Z,10.15
2022-08-23T06:59:13.963Z,7.90
2022-08-23T07:01:48.999Z,8.35
2022-08-23T07:04:19.486Z,7.50
2022-08-23T07:06:46.817Z,7.20
2022-08-23T07:09:15.072Z,10.60
2022-08-23T07:11:42.507Z,8.43
2022-08-23T07:14:12.857Z,8.02
2022-08-23T07:16:45.266Z,7.78
2022-08-23T07:19:12.888Z,8.95
2022-08-23T07:21:41.032Z,6.10
2022-08-23T07:24:08.771Z,7.13
2022-08-23T07:26:36.640Z,7.72
2022-08-23T07:29:06.260Z,6.78
2022-08-23T07:31:35.651Z,6.68
2022-08-23T07:34:05.212Z,7.82
2022-08-23T07:36:33.883Z,5.47
2022-08-23T07:39:02.117Z,7.75
2022-08-23T07:41:32.741Z,5.90
2022-08-23T07:44:03.493Z,7.63
2022-08-23T07:46:32.999Z,6.15
2022-08-23T07:49:02.137Z,5.45
2022-08-23T07:51:32.044Z,5.90
2022-08-23T07:54:01.278Z,5.07
2022-08-23T07:56:29.097Z,5.25
2022-08-23T07:58:56.483Z,4.30
2022-08-23T08:01:26.675Z,3.78
2022-08-23T08:03:56.079Z,4.10
2022-08-23T08:06:27.076Z,7.03
2022-08-23T08:08:55.007Z,3.60
2022-08-23T08:11:24.411Z,3.72
2022-08-23T08:13:53.401Z,5.35
2022-08-23T08:16:31.583Z,6.30
2022-08-23T08:19:01.028Z,3.90
2022-08-23T08:21:29.316Z,5.65
2022-08-23T08:23:57.548Z,4.53
2022-08-23T08:26:26.143Z,3.28
2022-08-23T08:28:56.271Z,3.67
2022-08-23T08:31:27.518Z,3.38
2022-08-23T08:33:55.101Z,3.65
2022-08-23T08:36:40.138Z,2.78
2022-08-23T08:39:14.551Z,3.50
2022-08-23T08:42:03.997Z,3.33
2022-08-23T08:44:47.090Z,3.90
2022-08-23T08:47:25.832Z,4.60
2022-08-23T08:50:09.827Z,3.88
2022-08-23T08:52:42.454Z,4.78
2022-08-23T08:55:20.748Z,2.97
2022-08-23T08:57:49.892Z,3.08
2022-08-23T09:00:24.391Z,2.75
2022-08-23T09:02:52.323Z,2.97
2022-08-23T09:05:26.855Z,2.53
2022-08-23T09:08:09.733Z,2.63
2022-08-23T09:10:58.125Z,3.78
2022-08-23T09:14:10.907Z,3.40
2022-08-23T09:16:41.028Z,1.73
2022-08-23T09:19:08.616Z,1.70
2022-08-23T09:21:59.193Z,2.85
2022-08-23T09:24:27.142Z,1.83
2022-08-23T09:26:54.554Z,1.90
2022-08-23T09:29:34.546Z,1.63
2022-08-23T09:32:25.258Z,2.03
2022-08-23T09:34:52.534Z,2.58
2022-08-23T09:37:25.081Z,2.15
2022-08-23T09:40:17.665Z,2.30
2022-08-23T09:42:47.304Z,2.03
2022-08-23T09:45:35.185Z,2.35
2022-08-23T09:48:04.628Z,4.95
2022-08-23T09:50:45.527Z,2.10
2022-08-23T09:53:15.581Z,2.40
2022-08-23T09:55:50.112Z,2.03
2022-08-23T09:58:29.146Z,1.88
2022-08-23T10:01:19.053Z,2.05
2022-08-23T10:03:47.435Z,3.03
2022-08-23T10:06:30.913Z,2.03
2022-08-23T10:09:02.168Z,1.60
2022-08-23T10:11:44.890Z,2.30
2022-08-23T10:14:18.134Z,2.25
2022-08-23T10:17:15.754Z,2.13
2022-08-23T10:19:48.770Z,1.75
2022-08-23T10:22:28.568Z,4.03
2022-08-23T10:25:00.498Z,3.30
2022-08-23T10:28:10.644Z,1.27
2022-08-23T10:31:05.815Z,1.90
2022-08-23T10:33:52.468Z,2.45
2022-08-23T10:36:42.969Z,1.40
2022-08-23T10:39:23.980Z,2.50
2022-08-23T10:42:00.746Z,2.10
2022-08-23T10:44:59.938Z,2.40
2022-08-23T10:47:53.627Z,2.22
2022-08-23T10:50:22.121Z,2.17
2022-08-23T10:52:57.523Z,2.55
2022-08-23T10:55:44.172Z,1.67
2022-08-23T10:58:22.752Z,2.75
2022-08-23T11:00:52.844Z,2.33
2022-08-23T11:03:33.411Z,2.10
2022-08-23T11:06:23.657Z,2.10
2022-08-23T11:09:00.437Z,1.85
2022-08-23T11:12:11.189Z,2.13
2022-08-23T11:14:55.925Z,1.75
2022-08-23T11:20:12.319Z,1.58
2022-08-23T11:22:57.937Z,2.80
2022-08-23T11:25:25.169Z,2.85
2022-08-23T11:28:30.436Z,1.70
2022-08-23T11:31:17.905Z,2.72
2022-08-23T11:33:57.235Z,1.85
2022-08-23T11:36:27.408Z,2.47
2022-08-23T11:38:55.631Z,1.30
2022-08-23T11:41:35.585Z,2.75
2022-08-23T11:44:03.283Z,1.50
2022-08-23T11:46:36.263Z,2.38
2022-08-23T11:49:54.488Z,1.95
2022-08-23T11:52:35.811Z,1.40
2022-08-23T11:55:39.489Z,2.72
2022-08-23T11:58:44.212Z,2.42
2022-08-23T12:01:14.064Z,3.53
2022-08-23T12:04:15.158Z,1.90
2022-08-23T12:06:51.020Z,3.08
2022-08-23T12:09:24.246Z,3.15
2022-08-23T12:11:57.355Z,2.10
2022-08-23T12:14:47.729Z,2.63
2022-08-23T12:17:27.577Z,1.80
2022-08-23T12:20:22.744Z,2.42
2022-08-23T12:23:15.827Z,2.95
2022-08-23T12:25:43.891Z,1.65
2022-08-23T12:28:19.560Z,1.38
2022-08-23T12:30:59.799Z,2.85
2022-08-23T12:33:56.260Z,4.05
2022-08-23T12:36:50.293Z,1.17
2022-08-23T12:39:33.262Z,0.80
2022-08-23T12:42:15.778Z,3.85
2022-08-23T12:44:46.377Z,1.05
2022-08-23T12:47:15.960Z,3.65
2022-08-23T12:49:54.001Z,2.20
2022-08-23T12:52:29.591Z,2.33
2022-08-23T12:54:58.087Z,2.55
2022-08-23T12:57:37.140Z,3.70
2022-08-23T13:00:35.418Z,1.70
2022-08-23T13:03:25.888Z,3.45
2022-08-23T13:06:02.217Z,2.28
2022-08-23T13:08:35.161Z,2.80
2022-08-23T13:11:08.112Z,2.10
2022-08-23T13:13:39.005Z,2.80
2022-08-23T13:16:31.631Z,1.33
2022-08-23T13:19:25.812Z,1.45
2022-08-23T13:22:19.030Z,0.75
2022-08-23T13:25:26.755Z,2.08
2022-08-23T13:27:48.821Z,1.35
2022-08-23T13:30:17.698Z,1.27
2022-08-23T13:32:47.124Z,1.52
2022-08-23T13:35:43.516Z,0.60
2022-08-23T13:38:29.812Z,1.00
2022-08-23T13:41:05.084Z,1.42
2022-08-23T13:43:44.318Z,1.15
2022-08-23T13:46:33.233Z,3.35
2022-08-23T13:49:11.303Z,1.20
2022-08-23T13:54:51.027Z,2.20
2022-08-23T13:57:22.123Z,1.45
2022-08-23T13:59:55.196Z,3.00
2022-08-23T14:02:24.337Z,1.30
2022-08-23T14:04:52.159Z,1.20
2022-08-23T14:07:20.000Z,1.98
2022-08-23T14:09:47.278Z,0.73
2022-08-23T14:12:27.935Z,2.50
2022-08-23T14:14:57.324Z,2.22
2022-08-23T14:17:25.514Z,1.65
2022-08-23T14:20:32.828Z,1.40
2022-08-23T14:22:40.790Z,0.88
2022-08-23T14:25:08.851Z,1.05
2022-08-23T14:27:38.523Z,2.13
2022-08-23T14:30:07.079Z,1.35
2022-08-23T14:32:34.685Z,1.27
2022-08-23T14:35:02.039Z,1.75
2022-08-23T14:40:16.927Z,0.65
2022-08-23T14:42:45.092Z,0.80
2022-08-23T14:45:12.848Z,0.85
2022-08-23T14:47:40.689Z,1.27
2022-08-23T14:50:10.281Z,0.68
2022-08-23T14:52:45.791Z,1.83
2022-08-23T14:55:14.563Z,0.50
2022-08-23T14:57:42.321Z,0.50
2022-08-23T15:00:14.053Z,0.93
2022-08-23T15:02:46.569Z,0.80
2022-08-23T15:05:15.045Z,1.00
2022-08-23T15:07:42.825Z,0.90
2022-08-23T15:10:49.648Z,0.82
2022-08-23T15:13:15.600Z,1.45
2022-08-23T15:15:49.190Z,0.90
2022-08-23T15:18:16.995Z,1.15
2022-08-23T15:20:45.386Z,0.80
2022-08-23T15:23:13.395Z,1.73
2022-08-23T15:25:43.021Z,0.95
2022-08-23T15:28:13.548Z,1.45
2022-08-23T15:30:41.636Z,0.95
2022-08-23T15:33:10.542Z,0.88
2022-08-23T15:35:44.138Z,0.77
2022-08-23T15:38:13.761Z,3.03
2022-08-23T15:40:41.258Z,1.65
2022-08-23T15:43:08.900Z,0.65
2022-08-23T15:45:37.075Z,0.60
2022-08-23T15:48:13.968Z,1.63
2022-08-23T15:50:45.845Z,3.65
2022-08-23T15:53:13.796Z,0.45
2022-08-23T15:55:42.968Z,1.23
2022-08-23T15:58:19.328Z,0.88
2022-08-23T16:00:48.010Z,0.70
2022-08-23T16:03:20.506Z,1.17
2022-08-23T16:05:56.526Z,3.13
2022-08-23T16:08:38.278Z,0.65
2022-08-23T16:11:12.067Z,6.72
2022-08-23T16:13:42.733Z,5.75
2022-08-23T16:16:25.319Z,3.53
2022-08-23T16:18:54.293Z,4.40
2022-08-23T16:21:25.124Z,5.43
2022-08-23T16:23:53.152Z,6.28
2022-08-23T16:26:35.323Z,4.45
2022-08-23T16:29:06.269Z,4.30
2022-08-23T16:31:38.629Z,4.40
2022-08-23T16:34:09.732Z,3.42
2022-08-23T16:36:38.221Z,5.50
2022-08-23T16:39:06.575Z,6.15
2022-08-23T16:41:33.963Z,5.03
2022-08-23T16:44:04.528Z,3.42
2022-08-23T16:46:31.862Z,1.98
2022-08-23T16:48:59.230Z,1.23
2022-08-23T16:51:26.907Z,2.15
2022-08-23T16:54:01.593Z,6.38
2022-08-23T16:56:32.146Z,9.75
2022-08-23T16:58:59.594Z,11.98
2022-08-23T17:01:27.934Z,21.10
2022-08-23T17:03:55.820Z,17.80
2022-08-23T17:06:23.160Z,18.23
2022-08-23T17:08:50.472Z,18.23
2022-08-23T17:11:19.698Z,19.25
2022-08-23T17:13:47.467Z,23.38
2022-08-23T17:16:14.919Z,16.10
2022-08-23T17:18:42.521Z,15.15
2022-08-23T17:21:09.907Z,17.13
2022-08-23T17:23:40.326Z,14.05
2022-08-23T17:26:09.101Z,13.02
2022-08-23T17:28:36.672Z,13.05
2022-08-23T17:31:03.942Z,9.68
2022-08-23T17:33:31.299Z,12.88
2022-08-23T17:35:58.776Z,12.02
2022-08-23T17:38:26.487Z,11.25
2022-08-23T17:40:54.924Z,9.40
2022-08-23T17:43:22.305Z,11.07
2022-08-23T17:45:51.856Z,10.05
2022-08-23T17:48:21.936Z,9.07
2022-08-23T17:50:50.039Z,13.45
2022-08-23T17:53:18.677Z,10.10
2022-08-23T17:55:46.221Z,9.65
2022-08-23T17:58:14.244Z,10.50
2022-08-23T18:00:41.816Z,9.40
2022-08-23T18:03:09.152Z,9.90
2022-08-23T18:05:40.828Z,12.45
2022-08-23T18:08:09.464Z,9.15
2022-08-23T18:10:37.131Z,9.98
2022-08-23T18:13:05.426Z,8.70
2022-08-23T18:15:32.851Z,6.75
2022-08-23T18:18:02.531Z,6.70
2022-08-23T18:20:31.088Z,7.07
2022-08-23T18:22:59.892Z,9.45
2022-08-23T18:25:28.413Z,5.47
2022-08-23T18:28:13.035Z,7.15
2022-08-23T18:33:15.621Z,6.40
2022-08-23T18:35:43.621Z,7.15
2022-08-23T18:38:15.048Z,6.43
2022-08-23T18:40:47.936Z,6.63
2022-08-23T18:43:26.257Z,5.68
2022-08-23T18:46:02.168Z,7.22
2022-08-23T18:48:29.578Z,6.22
2022-08-23T18:50:57.529Z,6.63
2022-08-23T18:53:25.003Z,5.43
2022-08-23T18:55:52.453Z,5.18
2022-08-23T18:58:21.102Z,6.60
2022-08-23T19:00:51.004Z,4.68
2022-08-23T19:03:18.804Z,7.05
2022-08-23T19:05:46.173Z,5.45
2022-08-23T19:08:14.863Z,5.55
2022-08-23T19:10:43.639Z,4.07
2022-08-23T19:13:11.666Z,4.75
2022-08-23T19:15:40.284Z,4.57
2022-08-23T19:18:08.447Z,4.30
2022-08-23T19:20:37.646Z,5.03
2022-08-23T19:23:04.911Z,4.95
2022-08-23T19:25:33.926Z,4.18
2022-08-23T19:28:01.237Z,3.53
2022-08-23T19:30:28.766Z,3.47
2022-08-23T19:32:56.874Z,2.65
2022-08-23T19:35:24.234Z,4.43
2022-08-23T19:37:51.609Z,3.25
2022-08-23T19:40:19.135Z,3.05
2022-08-23T19:42:46.524Z,2.85
2022-08-23T19:45:14.079Z,4.18
2022-08-23T19:47:41.601Z,3.30
2022-08-23T19:50:10.424Z,2.90
2022-08-23T19:52:38.167Z,3.38
2022-08-23T19:55:06.660Z,3.25
2022-08-23T19:57:37.304Z,2.67
2022-08-23T20:00:15.688Z,1.65
2022-08-23T20:02:46.424Z,3.53
2022-08-23T20:05:13.866Z,2.80
2022-08-23T20:07:42.158Z,2.28
2022-08-23T20:10:11.265Z,2.45
2022-08-23T20:12:39.220Z,3.63
2022-08-23T20:15:07.030Z,3.40
2022-08-23T20:17:34.792Z,1.85
2022-08-23T20:20:02.498Z,2.08
2022-08-23T20:22:48.189Z,3.38
2022-08-23T20:25:16.170Z,2.25
2022-08-23T20:27:43.541Z,2.40
2022-08-23T20:30:13.661Z,2.00
2022-08-23T20:32:41.068Z,2.80
2022-08-23T20:35:10.226Z,2.00
2022-08-23T20:37:39.000Z,2.10
2022-08-23T20:40:10.082Z,1.45
2022-08-23T20:42:38.911Z,1.85
2022-08-23T20:45:06.930Z,1.45
2022-08-23T20:47:35.325Z,2.35
2022-08-23T20:50:03.486Z,2.10
2022-08-23T20:52:34.510Z,1.55
2022-08-23T20:55:02.771Z,1.67
2022-08-23T20:57:36.778Z,2.97
2022-08-23T21:00:07.383Z,1.48
2022-08-23T21:02:35.367Z,1.13
2022-08-23T21:05:04.698Z,1.88
2022-08-23T21:07:34.170Z,2.00
2022-08-23T21:10:01.480Z,1.73
2022-08-23T21:12:28.801Z,1.85
2022-08-23T21:14:56.827Z,1.27
2022-08-23T21:17:24.173Z,1.02
2022-08-23T21:19:51.461Z,1.15
2022-08-23T21:22:18.805Z,5.07
2022-08-23T21:24:46.727Z,3.75
2022-08-23T21:27:16.076Z,5.18
2022-08-23T21:29:43.506Z,4.88
2022-08-23T21:32:11.083Z,5.35
2022-08-23T21:34:38.506Z,3.95
2022-08-23T21:37:06.571Z,4.22
2022-08-23T21:39:33.915Z,4.72
2022-08-23T21:42:01.453Z,10.02
2022-08-23T21:44:28.740Z,3.42
2022-08-23T21:46:56.061Z,3.63
2022-08-23T21:49:23.433Z,2.08
2022-08-23T21:51:53.502Z,1.35
2022-08-23T21:54:21.252Z,3.67
2022-08-23T21:56:48.570Z,2.63
2022-08-23T21:59:17.456Z,3.53
2022-08-23T22:01:46.247Z,3.80
2022-08-23T22:04:15.554Z,2.88
2022-08-23T22:06:45.128Z,1.35
2022-08-23T22:09:16.822Z,2.00
2022-08-23T22:11:46.227Z,2.35
2022-08-23T22:14:16.934Z,1.13
2022-08-23T22:16:44.292Z,2.35
2022-08-23T22:19:13.133Z,1.52
2022-08-23T22:21:41.378Z,3.92
2022-08-23T22:24:10.715Z,2.25
2022-08-23T22:26:42.296Z,2.70
2022-08-23T22:29:11.421Z,1.48
2022-08-23T22:31:39.753Z,0.60
2022-08-23T22:34:09.357Z,1.08
2022-08-23T22:36:37.083Z,2.03
2022-08-23T22:39:05.221Z,1.50
2022-08-23T22:41:33.059Z,1.35
2022-08-23T22:44:02.750Z,2.65
2022-08-23T22:46:32.323Z,1.23
2022-08-23T22:49:01.623Z,1.52
2022-08-23T22:51:32.422Z,1.42
2022-08-23T22:54:02.502Z,1.00
2022-08-23T22:56:45.834Z,3.13
2022-08-23T22:59:16.061Z,1.75
2022-08-23T23:01:53.841Z,2.60
2022-08-23T23:04:23.068Z,2.15
2022-08-23T23:06:51.199Z,3.83
2022-08-23T23:09:19.008Z,4.47
2022-08-23T23:11:47.110Z,6.88
2022-08-23T23:14:16.350Z,4.70
2022-08-23T23:16:44.605Z,5.30
2022-08-23T23:19:31.105Z,5.32
2022-08-23T23:24:44.354Z,3.97
2022-08-23T23:27:11.871Z,4.90
2022-08-23T23:29:39.253Z,4.32
2022-08-23T23:32:06.894Z,6.22
2022-08-23T23:34:34.919Z,7.35
2022-08-23T23:37:02.525Z,6.72
2022-08-23T23:39:29.991Z,5.22
2022-08-23T23:41:57.628Z,4.47
2022-08-23T23:44:31.023Z,3.90
2022-08-23T23:47:00.715Z,6.63
2022-08-23T23:49:32.292Z,4.72
2022-08-23T23:52:01.438Z,5.53
2022-08-23T23:54:28.892Z,4.00
2022-08-23T23:56:56.289Z,4.78
2022-08-23T23:59:23.561Z,4.60
